sensor_id;sensor_type;location;lat;lon;timestamp;P1;durP1;ratioP1;P2;durP2;ratioP2
55633;SDS011;41504;53.162;6.788;2022-09-09T00:00:17;13.65;;;8.70;;
55633;SDS011;41504;53.162;6.788;2022-09-09T00:02:51;12.52;;;9.23;;
55633;SDS011;41504;53.162;6.788;2022-09-09T00:05:29;10.38;;;8.55;;
55633;SDS011;41504;53.162;6.788;2022-09-09T00:08:02;11.07;;;7.68;;
55633;SDS011;41504;53.162;6.788;2022-09-09T00:10:33;13.20;;;8.70;;
55633;SDS011;41504;53.162;6.788;2022-09-09T00:18:32;12.30;;;7.28;;
55633;SDS011;41504;53.162;6.788;2022-09-09T00:21:17;13.52;;;7.97;;
55633;SDS011;41504;53.162;6.788;2022-09-09T00:23:48;11.20;;;7.18;;
55633;SDS011;41504;53.162;6.788;2022-09-09T00:29:00;12.48;;;7.00;;
55633;SDS011;41504;53.162;6.788;2022-09-09T00:31:37;11.85;;;6.53;;
55633;SDS011;41504;53.162;6.788;2022-09-09T00:34:11;12.43;;;7.75;;
55633;SDS011;41504;53.162;6.788;2022-09-09T00:36:41;11.32;;;7.40;;
55633;SDS011;41504;53.162;6.788;2022-09-09T00:39:51;11.88;;;7.38;;
55633;SDS011;41504;53.162;6.788;2022-09-09T00:42:21;12.05;;;7.03;;
55633;SDS011;41504;53.162;6.788;2022-09-09T00:48:01;14.43;;;7.18;;
55633;SDS011;41504;53.162;6.788;2022-09-09T00:50:37;10.40;;;7.45;;
55633;SDS011;41504;53.162;6.788;2022-09-09T00:53:39;10.88;;;7.80;;
55633;SDS011;41504;53.162;6.788;2022-09-09T00:56:42;12.70;;;7.82;;
55633;SDS011;41504;53.162;6.788;2022-09-09T00:59:46;11.80;;;7.57;;
55633;SDS011;41504;53.162;6.788;2022-09-09T01:04:53;11.20;;;7.97;;
55633;SDS011;41504;53.162;6.788;2022-09-09T01:07:23;13.90;;;7.50;;
55633;SDS011;41504;53.162;6.788;2022-09-09T01:09:58;10.48;;;7.43;;
55633;SDS011;41504;53.162;6.788;2022-09-09T01:12:34;11.27;;;8.00;;
55633;SDS011;41504;53.162;6.788;2022-09-09T01:15:03;14.47;;;7.50;;
55633;SDS011;41504;53.162;6.788;2022-09-09T01:18:08;12.77;;;8.30;;
55633;SDS011;41504;53.162;6.788;2022-09-09T01:20:37;12.90;;;7.38;;
55633;SDS011;41504;53.162;6.788;2022-09-09T01:28:55;11.05;;;7.63;;
55633;SDS011;41504;53.162;6.788;2022-09-09T01:31:22;10.38;;;7.25;;
55633;SDS011;41504;53.162;6.788;2022-09-09T01:33:53;12.45;;;7.47;;
55633;SDS011;41504;53.162;6.788;2022-09-09T01:38:49;10.75;;;7.68;;
55633;SDS011;41504;53.162;6.788;2022-09-09T01:41:15;11.95;;;7.47;;
55633;SDS011;41504;53.162;6.788;2022-09-09T01:43:40;11.93;;;7.32;;
55633;SDS011;41504;53.162;6.788;2022-09-09T01:46:06;11.88;;;7.20;;
55633;SDS011;41504;53.162;6.788;2022-09-09T01:48:33;11.57;;;7.63;;
55633;SDS011;41504;53.162;6.788;2022-09-09T01:50:59;14.32;;;7.88;;
55633;SDS011;41504;53.162;6.788;2022-09-09T01:53:24;14.35;;;7.35;;
55633;SDS011;41504;53.162;6.788;2022-09-09T01:56:05;11.75;;;7.22;;
55633;SDS011;41504;53.162;6.788;2022-09-09T01:58:56;11.13;;;7.30;;
55633;SDS011;41504;53.162;6.788;2022-09-09T02:04:18;12.73;;;7.35;;
55633;SDS011;41504;53.162;6.788;2022-09-09T02:06:55;12.57;;;7.97;;
55633;SDS011;41504;53.162;6.788;2022-09-09T02:09:25;10.57;;;7.15;;
55633;SDS011;41504;53.162;6.788;2022-09-09T02:12:25;13.18;;;7.30;;
55633;SDS011;41504;53.162;6.788;2022-09-09T02:14:50;13.35;;;7.43;;
55633;SDS011;41504;53.162;6.788;2022-09-09T02:17:29;10.15;;;7.07;;
55633;SDS011;41504;53.162;6.788;2022-09-09T02:20:06;12.77;;;8.02;;
55633;SDS011;41504;53.162;6.788;2022-09-09T02:22:35;14.15;;;7.82;;
55633;SDS011;41504;53.162;6.788;2022-09-09T02:25:05;12.25;;;6.85;;
55633;SDS011;41504;53.162;6.788;2022-09-09T02:27:33;12.85;;;7.60;;
55633;SDS011;41504;53.162;6.788;2022-09-09T02:30:00;10.95;;;7.45;;
55633;SDS011;41504;53.162;6.788;2022-09-09T02:32:28;13.77;;;7.78;;
55633;SDS011;41504;53.162;6.788;2022-09-09T02:35:02;10.88;;;7.35;;
55633;SDS011;41504;53.162;6.788;2022-09-09T02:37:33;10.18;;;6.68;;
55633;SDS011;41504;53.162;6.788;2022-09-09T02:40:03;12.88;;;7.35;;
55633;SDS011;41504;53.162;6.788;2022-09-09T02:42:30;11.43;;;7.00;;
55633;SDS011;41504;53.162;6.788;2022-09-09T02:44:56;11.27;;;6.78;;
55633;SDS011;41504;53.162;6.788;2022-09-09T02:47:25;12.13;;;6.95;;
55633;SDS011;41504;53.162;6.788;2022-09-09T02:53:07;12.23;;;6.55;;
55633;SDS011;41504;53.162;6.788;2022-09-09T02:58:16;11.30;;;6.38;;
55633;SDS011;41504;53.162;6.788;2022-09-09T03:00:47;10.20;;;6.35;;
55633;SDS011;41504;53.162;6.788;2022-09-09T03:03:14;9.35;;;6.30;;
55633;SDS011;41504;53.162;6.788;2022-09-09T03:05:41;11.80;;;6.50;;
55633;SDS011;41504;53.162;6.788;2022-09-09T03:08:07;11.57;;;5.95;;
55633;SDS011;41504;53.162;6.788;2022-09-09T03:10:34;10.60;;;6.05;;
55633;SDS011;41504;53.162;6.788;2022-09-09T03:13:00;10.57;;;5.82;;
55633;SDS011;41504;53.162;6.788;2022-09-09T03:15:25;10.02;;;5.85;;
55633;SDS011;41504;53.162;6.788;2022-09-09T03:17:55;12.75;;;5.60;;
55633;SDS011;41504;53.162;6.788;2022-09-09T03:20:22;10.10;;;5.25;;
55633;SDS011;41504;53.162;6.788;2022-09-09T03:22:50;8.65;;;5.45;;
55633;SDS011;41504;53.162;6.788;2022-09-09T03:25:15;10.05;;;5.43;;
55633;SDS011;41504;53.162;6.788;2022-09-09T03:27:41;10.32;;;5.30;;
55633;SDS011;41504;53.162;6.788;2022-09-09T03:30:07;10.23;;;5.82;;
55633;SDS011;41504;53.162;6.788;2022-09-09T03:32:33;9.20;;;5.75;;
55633;SDS011;41504;53.162;6.788;2022-09-09T03:34:58;9.30;;;5.15;;
55633;SDS011;41504;53.162;6.788;2022-09-09T03:37:24;8.98;;;5.22;;
55633;SDS011;41504;53.162;6.788;2022-09-09T03:39:50;9.55;;;5.25;;
55633;SDS011;41504;53.162;6.788;2022-09-09T03:42:16;10.02;;;4.70;;
55633;SDS011;41504;53.162;6.788;2022-09-09T03:44:48;9.15;;;4.78;;
55633;SDS011;41504;53.162;6.788;2022-09-09T03:47:18;9.10;;;4.88;;
55633;SDS011;41504;53.162;6.788;2022-09-09T03:49:46;11.30;;;4.18;;
55633;SDS011;41504;53.162;6.788;2022-09-09T03:52:13;7.90;;;4.30;;
55633;SDS011;41504;53.162;6.788;2022-09-09T03:54:39;10.43;;;4.50;;
55633;SDS011;41504;53.162;6.788;2022-09-09T03:57:06;7.60;;;4.10;;
55633;SDS011;41504;53.162;6.788;2022-09-09T03:59:32;8.60;;;4.13;;
55633;SDS011;41504;53.162;6.788;2022-09-09T04:01:57;8.40;;;4.03;;
55633;SDS011;41504;53.162;6.788;2022-09-09T04:04:24;8.60;;;4.18;;
55633;SDS011;41504;53.162;6.788;2022-09-09T04:06:51;9.38;;;4.38;;
55633;SDS011;41504;53.162;6.788;2022-09-09T04:09:17;7.95;;;4.10;;
55633;SDS011;41504;53.162;6.788;2022-09-09T04:11:43;8.38;;;4.05;;
55633;SDS011;41504;53.162;6.788;2022-09-09T04:14:08;13.75;;;4.38;;
55633;SDS011;41504;53.162;6.788;2022-09-09T04:16:34;9.18;;;4.32;;
55633;SDS011;41504;53.162;6.788;2022-09-09T04:19:02;8.65;;;4.07;;
55633;SDS011;41504;53.162;6.788;2022-09-09T04:21:29;8.40;;;4.22;;
55633;SDS011;41504;53.162;6.788;2022-09-09T04:23:55;9.55;;;4.43;;
55633;SDS011;41504;53.162;6.788;2022-09-09T04:26:21;9.00;;;4.05;;
55633;SDS011;41504;53.162;6.788;2022-09-09T04:28:47;8.05;;;4.10;;
55633;SDS011;41504;53.162;6.788;2022-09-09T04:31:17;9.18;;;3.90;;
55633;SDS011;41504;53.162;6.788;2022-09-09T04:33:49;11.80;;;4.43;;
55633;SDS011;41504;53.162;6.788;2022-09-09T04:36:15;7.28;;;3.70;;
55633;SDS011;41504;53.162;6.788;2022-09-09T04:38:41;7.80;;;3.65;;
55633;SDS011;41504;53.162;6.788;2022-09-09T04:41:07;7.85;;;3.97;;
55633;SDS011;41504;53.162;6.788;2022-09-09T04:43:36;6.32;;;3.55;;
55633;SDS011;41504;53.162;6.788;2022-09-09T04:46:02;7.07;;;3.70;;
55633;SDS011;41504;53.162;6.788;2022-09-09T04:48:28;6.13;;;3.42;;
55633;SDS011;41504;53.162;6.788;2022-09-09T04:50:58;7.93;;;3.50;;
55633;SDS011;41504;53.162;6.788;2022-09-09T04:53:26;8.93;;;4.00;;
55633;SDS011;41504;53.162;6.788;2022-09-09T04:55:53;8.13;;;4.32;;
55633;SDS011;41504;53.162;6.788;2022-09-09T18:40:37;7.00;;;2.97;;
55633;SDS011;41504;53.162;6.788;2022-09-09T18:43:03;6.03;;;3.08;;
55633;SDS011;41504;53.162;6.788;2022-09-09T18:45:29;4.72;;;2.90;;
55633;SDS011;41504;53.162;6.788;2022-09-09T18:47:59;6.57;;;3.08;;
55633;SDS011;41504;53.162;6.788;2022-09-09T18:50:25;6.25;;;2.90;;
55633;SDS011;41504;53.162;6.788;2022-09-09T18:52:51;7.22;;;2.92;;
55633;SDS011;41504;53.162;6.788;2022-09-09T18:55:16;5.85;;;2.47;;
55633;SDS011;41504;53.162;6.788;2022-09-09T18:57:42;5.35;;;2.75;;
55633;SDS011;41504;53.162;6.788;2022-09-09T19:00:09;5.93;;;2.90;;
55633;SDS011;41504;53.162;6.788;2022-09-09T19:02:35;5.53;;;2.80;;
55633;SDS011;41504;53.162;6.788;2022-09-09T19:05:03;6.40;;;3.10;;
55633;SDS011;41504;53.162;6.788;2022-09-09T19:07:29;7.68;;;3.08;;
55633;SDS011;41504;53.162;6.788;2022-09-09T19:09:54;6.82;;;3.05;;
55633;SDS011;41504;53.162;6.788;2022-09-09T19:12:20;6.05;;;2.58;;
55633;SDS011;41504;53.162;6.788;2022-09-09T19:14:46;6.97;;;2.78;;
55633;SDS011;41504;53.162;6.788;2022-09-09T19:17:11;6.45;;;2.65;;
55633;SDS011;41504;53.162;6.788;2022-09-09T19:19:37;7.20;;;2.90;;
55633;SDS011;41504;53.162;6.788;2022-09-09T19:22:06;5.38;;;2.80;;
55633;SDS011;41504;53.162;6.788;2022-09-09T19:24:36;5.97;;;3.25;;
55633;SDS011;41504;53.162;6.788;2022-09-09T19:27:03;7.38;;;3.20;;
55633;SDS011;41504;53.162;6.788;2022-09-09T19:29:31;6.60;;;3.35;;
55633;SDS011;41504;53.162;6.788;2022-09-09T19:31:59;6.72;;;3.00;;
55633;SDS011;41504;53.162;6.788;2022-09-09T19:34:26;7.75;;;2.72;;
55633;SDS011;41504;53.162;6.788;2022-09-09T19:36:53;5.70;;;2.80;;
55633;SDS011;41504;53.162;6.788;2022-09-09T19:39:18;6.38;;;2.78;;
55633;SDS011;41504;53.162;6.788;2022-09-09T19:41:45;6.70;;;2.80;;
55633;SDS011;41504;53.162;6.788;2022-09-09T19:44:15;6.90;;;3.10;;
55633;SDS011;41504;53.162;6.788;2022-09-09T19:46:42;18.10;;;3.38;;
55633;SDS011;41504;53.162;6.788;2022-09-09T19:49:10;6.15;;;2.70;;
55633;SDS011;41504;53.162;6.788;2022-09-09T19:51:36;7.43;;;3.22;;
55633;SDS011;41504;53.162;6.788;2022-09-09T19:54:03;5.97;;;3.05;;
55633;SDS011;41504;53.162;6.788;2022-09-09T19:56:34;5.00;;;2.90;;
55633;SDS011;41504;53.162;6.788;2022-09-09T19:59:02;7.13;;;3.65;;
55633;SDS011;41504;53.162;6.788;2022-09-09T20:01:30;6.90;;;3.10;;
55633;SDS011;41504;53.162;6.788;2022-09-09T20:04:01;6.40;;;3.60;;
55633;SDS011;41504;53.162;6.788;2022-09-09T20:06:28;6.50;;;3.15;;
55633;SDS011;41504;53.162;6.788;2022-09-09T20:08:57;6.10;;;3.10;;
55633;SDS011;41504;53.162;6.788;2022-09-09T20:11:23;8.75;;;3.42;;
55633;SDS011;41504;53.162;6.788;2022-09-09T20:13:50;6.07;;;2.90;;
55633;SDS011;41504;53.162;6.788;2022-09-09T20:16:23;6.13;;;3.28;;
55633;SDS011;41504;53.162;6.788;2022-09-09T20:18:52;8.10;;;3.38;;
55633;SDS011;41504;53.162;6.788;2022-09-09T20:21:20;7.70;;;4.00;;
55633;SDS011;41504;53.162;6.788;2022-09-09T20:23:49;8.38;;;3.55;;
55633;SDS011;41504;53.162;6.788;2022-09-09T20:26:17;5.75;;;3.72;;
55633;SDS011;41504;53.162;6.788;2022-09-09T20:28:48;8.43;;;4.07;;
55633;SDS011;41504;53.162;6.788;2022-09-09T20:31:16;7.00;;;4.25;;
55633;SDS011;41504;53.162;6.788;2022-09-09T20:33:43;8.45;;;4.88;;
55633;SDS011;41504;53.162;6.788;2022-09-09T20:36:17;8.40;;;4.20;;
55633;SDS011;41504;53.162;6.788;2022-09-09T20:38:45;10.30;;;4.47;;
55633;SDS011;41504;53.162;6.788;2022-09-09T20:41:17;8.05;;;4.60;;
55633;SDS011;41504;53.162;6.788;2022-09-09T20:43:49;6.47;;;4.53;;
55633;SDS011;41504;53.162;6.788;2022-09-09T20:46:18;7.18;;;4.50;;
55633;SDS011;41504;53.162;6.788;2022-09-09T20:48:45;6.00;;;4.53;;
55633;SDS011;41504;53.162;6.788;2022-09-09T20:51:12;8.20;;;5.25;;
55633;SDS011;41504;53.162;6.788;2022-09-09T20:53:40;8.57;;;5.15;;
55633;SDS011;41504;53.162;6.788;2022-09-09T20:56:06;10.48;;;5.68;;
55633;SDS011;41504;53.162;6.788;2022-09-09T20:58:34;8.90;;;5.50;;
55633;SDS011;41504;53.162;6.788;2022-09-09T21:01:01;6.68;;;5.18;;
55633;SDS011;41504;53.162;6.788;2022-09-09T21:03:28;8.82;;;6.10;;
55633;SDS011;41504;53.162;6.788;2022-09-09T21:05:59;8.30;;;5.35;;
55633;SDS011;41504;53.162;6.788;2022-09-09T21:08:27;8.88;;;5.25;;
55633;SDS011;41504;53.162;6.788;2022-09-09T21:10:54;9.05;;;5.55;;
55633;SDS011;41504;53.162;6.788;2022-09-09T21:13:20;9.75;;;6.00;;
55633;SDS011;41504;53.162;6.788;2022-09-09T21:15:47;8.35;;;5.38;;
55633;SDS011;41504;53.162;6.788;2022-09-09T21:18:13;7.93;;;5.20;;
55633;SDS011;41504;53.162;6.788;2022-09-09T21:20:39;9.95;;;4.78;;
55633;SDS011;41504;53.162;6.788;2022-09-09T21:23:08;9.20;;;5.32;;
55633;SDS011;41504;53.162;6.788;2022-09-09T21:25:34;7.82;;;4.88;;
55633;SDS011;41504;53.162;6.788;2022-09-09T21:28:00;8.40;;;5.55;;
55633;SDS011;41504;53.162;6.788;2022-09-09T21:30:27;8.95;;;5.47;;
55633;SDS011;41504;53.162;6.788;2022-09-09T21:32:53;8.55;;;5.50;;
55633;SDS011;41504;53.162;6.788;2022-09-09T21:35:19;8.15;;;5.30;;
55633;SDS011;41504;53.162;6.788;2022-09-09T21:37:45;8.15;;;6.15;;
55633;SDS011;41504;53.162;6.788;2022-09-09T21:40:11;10.35;;;5.45;;
55633;SDS011;41504;53.162;6.788;2022-09-09T21:42:37;9.43;;;5.82;;
55633;SDS011;41504;53.162;6.788;2022-09-09T21:45:03;9.02;;;5.82;;
55633;SDS011;41504;53.162;6.788;2022-09-09T21:47:30;9.18;;;5.72;;
55633;SDS011;41504;53.162;6.788;2022-09-09T21:49:55;8.98;;;5.20;;
55633;SDS011;41504;53.162;6.788;2022-09-09T21:52:21;7.97;;;5.70;;
55633;SDS011;41504;53.162;6.788;2022-09-09T21:54:48;8.00;;;4.95;;
55633;SDS011;41504;53.162;6.788;2022-09-09T21:57:14;9.10;;;5.70;;
55633;SDS011;41504;53.162;6.788;2022-09-09T21:59:39;7.25;;;5.25;;
55633;SDS011;41504;53.162;6.788;2022-09-09T22:02:06;7.47;;;5.55;;
55633;SDS011;41504;53.162;6.788;2022-09-09T22:04:35;8.73;;;5.20;;
55633;SDS011;41504;53.162;6.788;2022-09-09T22:07:01;7.70;;;5.10;;
55633;SDS011;41504;53.162;6.788;2022-09-09T22:09:27;9.10;;;6.28;;
55633;SDS011;41504;53.162;6.788;2022-09-09T22:11:53;8.73;;;5.25;;
55633;SDS011;41504;53.162;6.788;2022-09-09T22:14:19;8.60;;;5.47;;
55633;SDS011;41504;53.162;6.788;2022-09-09T22:16:45;9.65;;;5.50;;
55633;SDS011;41504;53.162;6.788;2022-09-09T22:19:10;10.35;;;5.70;;
55633;SDS011;41504;53.162;6.788;2022-09-09T22:21:36;8.75;;;6.00;;
55633;SDS011;41504;53.162;6.788;2022-09-09T22:24:03;7.70;;;5.38;;
55633;SDS011;41504;53.162;6.788;2022-09-09T22:26:30;8.68;;;5.43;;
55633;SDS011;41504;53.162;6.788;2022-09-09T22:28:58;9.70;;;5.90;;
55633;SDS011;41504;53.162;6.788;2022-09-09T22:31:25;9.23;;;5.57;;
55633;SDS011;41504;53.162;6.788;2022-09-09T22:33:51;9.93;;;5.38;;
55633;SDS011;41504;53.162;6.788;2022-09-09T22:36:18;8.45;;;5.63;;
55633;SDS011;41504;53.162;6.788;2022-09-09T22:38:45;8.27;;;5.65;;
55633;SDS011;41504;53.162;6.788;2022-09-09T22:41:14;10.15;;;5.72;;
55633;SDS011;41504;53.162;6.788;2022-09-09T22:43:41;7.50;;;5.30;;
55633;SDS011;41504;53.162;6.788;2022-09-09T22:46:07;8.32;;;5.65;;
55633;SDS011;41504;53.162;6.788;2022-09-09T22:48:34;11.85;;;6.15;;
55633;SDS011;41504;53.162;6.788;2022-09-09T22:51:01;8.95;;;5.97;;
55633;SDS011;41504;53.162;6.788;2022-09-09T22:53:29;8.68;;;5.80;;
55633;SDS011;41504;53.162;6.788;2022-09-09T22:56:02;9.57;;;6.18;;
55633;SDS011;41504;53.162;6.788;2022-09-09T22:58:30;9.07;;;5.85;;
55633;SDS011;41504;53.162;6.788;2022-09-09T23:00:58;10.38;;;6.30;;
55633;SDS011;41504;53.162;6.788;2022-09-09T23:03:25;11.57;;;6.60;;
55633;SDS011;41504;53.162;6.788;2022-09-09T23:05:54;10.15;;;6.50;;
55633;SDS011;41504;53.162;6.788;2022-09-09T23:08:25;9.15;;;6.30;;
55633;SDS011;41504;53.162;6.788;2022-09-09T23:10:58;10.13;;;6.22;;
55633;SDS011;41504;53.162;6.788;2022-09-09T23:13:35;10.60;;;6.20;;
55633;SDS011;41504;53.162;6.788;2022-09-09T23:16:13;9.75;;;6.47;;
55633;SDS011;41504;53.162;6.788;2022-09-09T23:18:44;9.90;;;6.47;;
55633;SDS011;41504;53.162;6.788;2022-09-09T23:21:10;9.10;;;6.45;;
55633;SDS011;41504;53.162;6.788;2022-09-09T23:23:37;10.15;;;6.80;;
55633;SDS011;41504;53.162;6.788;2022-09-09T23:26:05;10.20;;;6.82;;
55633;SDS011;41504;53.162;6.788;2022-09-09T23:28:35;9.98;;;6.57;;
55633;SDS011;41504;53.162;6.788;2022-09-09T23:31:05;10.63;;;6.88;;
55633;SDS011;41504;53.162;6.788;2022-09-09T23:33:41;11.80;;;6.72;;
55633;SDS011;41504;53.162;6.788;2022-09-09T23:36:11;10.90;;;6.57;;
55633;SDS011;41504;53.162;6.788;2022-09-09T23:38:39;9.40;;;6.43;;
55633;SDS011;41504;53.162;6.788;2022-09-09T23:41:06;11.90;;;7.20;;
55633;SDS011;41504;53.162;6.788;2022-09-09T23:43:33;11.32;;;7.60;;
55633;SDS011;41504;53.162;6.788;2022-09-09T23:46:09;11.45;;;7.68;;
55633;SDS011;41504;53.162;6.788;2022-09-09T23:48:37;12.20;;;7.95;;
55633;SDS011;41504;53.162;6.788;2022-09-09T23:51:07;10.95;;;7.63;;
55633;SDS011;41504;53.162;6.788;2022-09-09T23:53:36;11.27;;;8.15;;
55633;SDS011;41504;53.162;6.788;2022-09-09T23:56:02;10.55;;;7.93;;
55633;SDS011;41504;53.162;6.788;2022-09-09T23:58:32;10.82;;;7.05;;
